Roatan, Honduras
Current Conditions -  °F | °C
As of 2:00 PM on Thursday 23 Oct 2014 (Local Time) from MHLC Reporting Station
Scattered Clouds Scattered Clouds  
Wind Chill: 84°   Ceiling: Unl
Heat Index: 91°   Visibility: 6mi
Dew Point: 73°   Wind: 2mph
Humidity: 70%   Direction: NA
Pressure: 29.77"   Gusts: NA
Location:  16.33°N, 86.52°W
Report Text: MHLC 232000Z VRB02KT 9999 SCT026TU SCT080 29/23 Q1008 A2976 NOSIG
Loading
Personal Weather Stations






























Interactive Weather Map New forecast layout! Learn more

10-Day Weather Forecast

Advertisements
Track Severe Weather on mobile